Time;durP1;ratioP1;P1;durP2;ratioP2;P2;SDS_P1;SDS_P2;PMS_P1;PMS_P2;Temp;Humidity;BMP_temperature;BMP_pressure;BME280_temperature;BME280_humidity;BME280_pressure;Samples;Min_cycle;Max_cycle;Signal;HPM_P1;HPM_P2
2023/05/10 04:02:21;;;;;;;1.02;1.02;;;12.40;99.90;;;;;;5073107;23;20271;-72
2023/05/10 04:04:48;;;;;;;2.40;2.28;;;12.40;99.90;;;;;;4954005;29;20672;-72
2023/05/10 04:07:15;;;;;;;2.08;2.08;;;12.50;99.90;;;;;;4954463;29;20217;-72
2023/05/10 04:09:41;;;;;;;1.77;1.67;;;12.50;99.90;;;;;;4953690;29;20260;-72
2023/05/10 04:12:08;;;;;;;1.50;1.50;;;12.50;99.90;;;;;;4954605;28;20292;-72
2023/05/10 04:14:34;;;;;;;2.13;2.03;;;12.50;99.90;;;;;;4954171;29;20209;-72
2023/05/10 04:17:01;;;;;;;1.98;1.88;;;12.50;99.90;;;;;;4954880;29;20287;-72
2023/05/10 04:19:31;;;;;;;2.42;2.33;;;12.50;99.90;;;;;;4954740;29;20240;-72
2023/05/10 04:21:58;;;;;;;2.67;2.47;;;12.50;99.90;;;;;;4954374;28;20229;-72
2023/05/10 04:24:24;;;;;;;2.40;2.20;;;12.50;99.90;;;;;;4952973;29;20386;-71
2023/05/10 04:26:51;;;;;;;2.67;2.50;;;12.50;99.90;;;;;;4954460;29;20309;-71
2023/05/10 04:29:18;;;;;;;2.00;1.73;;;12.60;99.90;;;;;;4954176;29;20468;-71
2023/05/10 04:31:44;;;;;;;2.00;1.90;;;12.70;99.90;;;;;;4954281;28;20906;-71
2023/05/10 04:34:11;;;;;;;2.70;2.60;;;12.70;99.90;;;;;;4953343;29;20631;-71
2023/05/10 04:36:39;;;;;;;2.60;2.58;;;12.80;99.90;;;;;;4953909;29;20832;-71
2023/05/10 04:39:06;;;;;;;2.40;2.30;;;12.90;99.90;;;;;;4953146;29;20220;-71
2023/05/10 04:41:32;;;;;;;2.10;2.00;;;13.00;99.90;;;;;;4947801;28;20605;-71
2023/05/10 04:43:59;;;;;;;2.30;1.97;;;13.20;99.90;;;;;;4953165;29;20827;-71
2023/05/10 04:46:26;;;;;;;1.83;1.73;;;13.30;99.90;;;;;;4953619;29;20542;-71
2023/05/10 04:48:52;;;;;;;1.13;1.13;;;13.20;99.90;;;;;;4953475;29;20476;-70
2023/05/10 04:51:20;;;;;;;4.30;2.00;;;13.30;99.90;;;;;;4953437;28;20485;-72
2023/05/10 04:53:48;;;;;;;1.73;1.63;;;13.50;99.90;;;;;;4952169;29;20469;-71
2023/05/10 04:56:15;;;;;;;2.17;2.03;;;13.60;99.90;;;;;;4953376;29;20463;-72
2023/05/10 04:58:42;;;;;;;2.37;2.27;;;13.80;99.90;;;;;;4953525;29;20563;-71
2023/05/10 05:01:10;;;;;;;1.00;1.00;;;14.10;99.90;;;;;;4953174;28;20518;-71
2023/05/10 05:03:37;;;;;;;1.90;1.90;;;14.10;99.90;;;;;;4952730;29;20571;-70
2023/05/10 05:06:04;;;;;;;1.60;1.53;;;14.10;99.90;;;;;;4953385;29;20480;-71
2023/05/10 05:08:31;;;;;;;2.10;1.90;;;14.00;99.90;;;;;;4952932;28;20475;-71
2023/05/10 05:10:59;;;;;;;1.70;1.70;;;13.90;99.90;;;;;;4953310;28;20484;-71
2023/05/10 05:13:26;;;;;;;2.70;2.47;;;13.80;99.90;;;;;;4952559;29;20468;-71
2023/05/10 05:15:53;;;;;;;2.00;1.87;;;13.70;99.90;;;;;;4953381;29;20469;-71
2023/05/10 05:18:19;;;;;;;1.73;1.63;;;13.70;99.90;;;;;;4952880;29;20464;-71
2023/05/10 05:20:46;;;;;;;2.10;2.00;;;13.80;99.90;;;;;;4952823;28;20508;-72
2023/05/10 05:23:13;;;;;;;2.23;2.13;;;13.90;99.90;;;;;;4952302;29;20500;-73
2023/05/10 05:25:39;;;;;;;2.17;2.07;;;13.90;99.90;;;;;;4952953;29;20491;-72
2023/05/10 05:28:07;;;;;;;1.90;1.90;;;14.00;99.90;;;;;;4952949;29;20472;-71
2023/05/10 05:30:34;;;;;;;2.73;2.60;;;14.00;99.90;;;;;;4952918;28;20484;-72
2023/05/10 05:33:01;;;;;;;2.50;2.30;;;14.00;99.90;;;;;;4952730;29;20477;-72
2023/05/10 05:35:27;;;;;;;3.20;2.00;;;13.90;99.90;;;;;;4952703;29;20461;-71
2023/05/10 05:37:54;;;;;;;1.40;1.40;;;13.90;99.90;;;;;;4952370;29;20810;-72
2023/05/10 05:40:21;;;;;;;4.23;3.07;;;13.90;99.90;;;;;;4952368;28;20500;-71
2023/05/10 05:42:47;;;;;;;1.40;1.40;;;14.00;99.90;;;;;;4946051;28;20588;-71
2023/05/10 05:45:16;;;;;;;1.57;1.50;;;14.00;99.90;;;;;;4933290;29;20889;-71
2023/05/10 05:47:43;;;;;;;2.43;2.30;;;14.10;99.90;;;;;;4933344;29;20495;-71
2023/05/10 05:50:10;;;;;;;1.53;1.50;;;14.10;99.90;;;;;;4933609;29;20930;-72
2023/05/10 05:52:37;;;;;;;1.83;1.73;;;14.10;99.90;;;;;;4933116;29;20842;-72
2023/05/10 05:55:04;;;;;;;0.73;0.73;;;14.10;99.90;;;;;;4932719;29;20477;-72
2023/05/10 05:57:31;;;;;;;1.70;1.70;;;14.10;99.90;;;;;;4933023;29;20476;-72
2023/05/10 05:59:58;;;;;;;1.50;1.40;;;14.30;99.90;;;;;;4933506;29;20492;-72
2023/05/10 06:02:25;;;;;;;1.40;1.40;;;14.40;99.90;;;;;;4933135;29;20561;-71
2023/05/10 06:04:52;;;;;;;2.50;2.50;;;14.50;99.90;;;;;;4933234;29;20466;-71
2023/05/10 06:07:19;;;;;;;2.80;2.70;;;14.70;99.90;;;;;;4933630;29;20476;-72
2023/05/10 06:09:45;;;;;;;2.50;1.53;;;14.90;99.90;;;;;;4933185;29;20457;-71
2023/05/10 06:12:12;;;;;;;2.10;2.10;;;15.10;99.90;;;;;;4934030;29;20489;-71
2023/05/10 06:14:39;;;;;;;2.10;2.00;;;15.40;99.90;;;;;;4932356;29;20469;-71
2023/05/10 06:17:06;;;;;;;1.90;1.90;;;15.60;99.90;;;;;;4933364;29;20544;-71
2023/05/10 06:19:34;;;;;;;2.33;2.13;;;15.90;99.90;;;;;;4932384;29;20465;-72
2023/05/10 06:22:01;;;;;;;2.33;2.23;;;16.40;99.90;;;;;;4933424;29;20489;-71
2023/05/10 06:24:28;;;;;;;2.10;2.00;;;16.90;99.90;;;;;;4931813;29;20482;-71
2023/05/10 06:26:54;;;;;;;1.73;1.73;;;17.50;99.90;;;;;;4933044;29;20581;-72
2023/05/10 06:29:21;;;;;;;1.17;1.17;;;17.90;99.90;;;;;;4932766;29;20565;-71
2023/05/10 06:31:48;;;;;;;2.30;2.10;;;17.90;99.90;;;;;;4933179;29;20489;-72
2023/05/10 06:34:14;;;;;;;2.10;1.83;;;17.30;99.90;;;;;;4932355;29;20464;-72
2023/05/10 06:36:42;;;;;;;1.53;1.37;;;16.80;99.90;;;;;;4933246;29;20476;-71
2023/05/10 06:39:11;;;;;;;1.80;1.70;;;16.60;99.90;;;;;;4932317;29;20472;-72
2023/05/10 06:41:38;;;;;;;2.37;1.97;;;16.40;99.90;;;;;;4940443;28;20504;-72
2023/05/10 06:44:05;;;;;;;2.23;2.13;;;16.20;99.90;;;;;;4932018;29;20465;-72
2023/05/10 06:46:31;;;;;;;1.77;1.67;;;16.20;99.90;;;;;;4933365;29;20818;-72
2023/05/10 06:48:58;;;;;;;2.40;2.40;;;16.20;99.90;;;;;;4932902;29;20477;-71
2023/05/10 06:51:25;;;;;;;1.83;1.73;;;16.20;99.90;;;;;;4932664;29;20481;-71
2023/05/10 06:53:53;;;;;;;2.00;1.90;;;16.20;99.90;;;;;;4931521;29;20511;-71
2023/05/10 06:56:21;;;;;;;2.73;2.63;;;16.20;99.90;;;;;;4932523;29;20473;-71
2023/05/10 06:58:47;;;;;;;1.97;1.87;;;16.10;99.90;;;;;;4932469;29;20505;-71
2023/05/10 07:01:14;;;;;;;1.43;1.33;;;16.30;99.90;;;;;;4932474;29;20921;-72
2023/05/10 07:03:41;;;;;;;2.70;2.60;;;16.50;99.90;;;;;;4931802;29;20956;-71
2023/05/10 07:06:08;;;;;;;1.70;1.60;;;16.60;99.90;;;;;;4932984;29;20560;-71
2023/05/10 07:08:35;;;;;;;1.07;1.07;;;16.80;99.90;;;;;;4932157;29;20481;-72
2023/05/10 07:11:04;;;;;;;1.90;1.80;;;16.70;99.90;;;;;;4932534;29;20485;-71
2023/05/10 07:13:31;;;;;;;1.03;1.03;;;16.60;99.90;;;;;;4932082;29;20473;-71
2023/05/10 07:15:58;;;;;;;2.10;2.00;;;16.40;99.90;;;;;;4932657;29;20847;-71
2023/05/10 07:18:25;;;;;;;2.03;1.83;;;16.40;99.90;;;;;;4932236;29;20930;-71
2023/05/10 07:20:52;;;;;;;2.23;2.13;;;16.40;99.90;;;;;;4932402;29;20584;-72
2023/05/10 07:23:19;;;;;;;2.03;2.00;;;16.40;99.90;;;;;;4931486;29;20466;-72
2023/05/10 07:25:46;;;;;;;2.50;2.40;;;16.50;99.90;;;;;;4932458;29;20477;-71
2023/05/10 07:28:14;;;;;;;2.23;2.13;;;16.70;99.90;;;;;;4932440;29;20556;-72
2023/05/10 07:30:41;;;;;;;2.17;1.97;;;17.00;99.90;;;;;;4933381;29;20485;-72
2023/05/10 07:33:09;;;;;;;1.90;1.80;;;17.10;99.90;;;;;;4935976;29;20528;-72
2023/05/10 07:35:36;;;;;;;3.60;1.27;;;17.20;99.90;;;;;;4935539;29;20504;-72
2023/05/10 07:38:03;;;;;;;2.17;2.10;;;17.20;99.90;;;;;;4935418;29;20485;-72
2023/05/10 07:40:30;;;;;;;1.80;1.80;;;17.20;99.90;;;;;;4939878;28;20820;-72
2023/05/10 07:42:56;;;;;;;2.20;2.10;;;17.20;99.90;;;;;;4954791;29;20543;-72
2023/05/10 07:45:24;;;;;;;1.60;1.50;;;17.10;99.90;;;;;;4954520;29;20491;-72
2023/05/10 07:47:51;;;;;;;4.63;1.93;;;17.10;99.90;;;;;;4954960;29;20477;-72
2023/05/10 07:50:18;;;;;;;2.67;2.47;;;17.10;99.90;;;;;;4954729;28;20465;-72
2023/05/10 07:52:44;;;;;;;1.70;1.70;;;17.00;99.90;;;;;;4954007;29;20512;-72
2023/05/10 07:55:11;;;;;;;1.87;1.77;;;16.90;99.90;;;;;;4954324;29;20547;-71
2023/05/10 07:57:38;;;;;;;1.17;1.17;;;16.80;99.90;;;;;;4954811;29;20476;-72
2023/05/10 08:00:06;;;;;;;1.73;1.73;;;16.90;99.90;;;;;;4955410;29;20472;-72
2023/05/10 08:02:36;;;;;;;2.20;2.07;;;16.90;99.90;;;;;;4954567;28;20500;-72
2023/05/10 08:05:03;;;;;;;2.83;2.60;;;17.00;99.90;;;;;;4954089;29;20547;-71
2023/05/10 08:07:29;;;;;;;2.30;2.30;;;17.20;99.90;;;;;;4954139;29;20519;-73
2023/05/10 08:09:56;;;;;;;1.47;1.47;;;17.20;99.90;;;;;;4954386;29;20472;-72
2023/05/10 08:12:23;;;;;;;1.90;1.90;;;17.30;99.90;;;;;;4954373;28;20539;-72
2023/05/10 08:14:49;;;;;;;2.67;2.47;;;17.40;99.90;;;;;;4953783;29;20471;-72
2023/05/10 08:17:16;;;;;;;1.77;1.70;;;17.50;99.90;;;;;;4954661;29;20949;-73
2023/05/10 08:19:44;;;;;;;1.90;1.90;;;17.70;99.90;;;;;;4954062;29;20495;-72
2023/05/10 08:22:11;;;;;;;2.30;2.20;;;17.80;99.90;;;;;;4954413;28;20501;-72
2023/05/10 08:24:38;;;;;;;2.70;2.03;;;17.80;99.90;;;;;;4953490;29;20465;-72
2023/05/10 08:27:05;;;;;;;1.80;1.80;;;17.90;99.90;;;;;;4954489;29;20466;-72
2023/05/10 08:29:32;;;;;;;2.73;2.63;;;18.00;99.90;;;;;;4954170;29;20472;-72
2023/05/10 08:31:58;;;;;;;2.33;2.23;;;18.10;99.90;;;;;;4954206;28;20525;-72
2023/05/10 08:34:25;;;;;;;2.20;2.10;;;18.10;99.90;;;;;;4953625;29;20955;-71
2023/05/10 08:36:53;;;;;;;4.40;3.17;;;18.10;99.90;;;;;;4954543;28;20523;-72
2023/05/10 08:39:20;;;;;;;2.33;2.20;;;17.90;99.90;;;;;;4952446;29;20471;-72
2023/05/10 08:41:48;;;;;;;1.40;1.40;;;17.90;99.90;;;;;;4942323;28;20489;-73
2023/05/10 08:44:18;;;;;;;2.03;2.03;;;17.80;99.90;;;;;;4934269;29;20465;-72
2023/05/10 08:46:47;;;;;;;3.80;2.97;;;17.60;99.90;;;;;;4934907;29;20946;-72
2023/05/10 08:49:17;;;;;;;2.60;2.40;;;17.40;99.90;;;;;;4935019;29;20816;-72
2023/05/10 08:51:50;;;;;;;2.93;2.73;;;17.30;99.90;;;;;;4934925;29;20510;-72
2023/05/10 08:54:19;;;;;;;4.60;3.07;;;17.10;99.90;;;;;;4933742;29;20563;-72
2023/05/10 08:56:46;;;;;;;1.60;1.60;;;17.10;99.90;;;;;;4934661;29;20469;-72
2023/05/10 08:59:13;;;;;;;1.60;1.50;;;17.20;99.90;;;;;;4934979;29;20470;-72
2023/05/10 09:01:41;;;;;;;1.93;1.83;;;17.20;99.90;;;;;;4934500;29;20496;-71
2023/05/10 09:04:07;;;;;;;2.03;1.93;;;17.20;99.90;;;;;;4934186;29;20465;-72
2023/05/10 09:06:35;;;;;;;3.03;2.47;;;17.30;99.90;;;;;;4934620;29;20517;-71
2023/05/10 09:09:03;;;;;;;1.70;1.70;;;17.30;99.90;;;;;;4933888;29;20473;-72
2023/05/10 09:11:31;;;;;;;2.10;2.00;;;17.30;99.90;;;;;;4934697;29;20489;-72
2023/05/10 09:13:58;;;;;;;1.77;1.77;;;17.30;99.90;;;;;;4933635;29;20461;-71
2023/05/10 09:16:25;;;;;;;1.97;1.87;;;17.20;99.90;;;;;;4934542;29;20470;-72
2023/05/10 09:18:51;;;;;;;2.03;2.03;;;17.20;99.90;;;;;;4934311;29;20476;-72
2023/05/10 09:21:19;;;;;;;1.70;1.70;;;17.10;99.90;;;;;;4933946;29;20494;-71
2023/05/10 09:23:47;;;;;;;2.83;2.63;;;16.90;99.90;;;;;;4933176;29;20473;-71
2023/05/10 09:26:14;;;;;;;2.10;2.03;;;17.00;99.90;;;;;;4934244;29;20493;-72
2023/05/10 09:28:53;;;;;;;3.10;2.13;;;17.10;99.90;;;;;;4933748;29;20469;-72
2023/05/10 09:31:20;;;;;;;7.13;2.07;;;17.10;99.90;;;;;;4934248;29;20497;-72
2023/05/10 09:33:48;;;;;;;3.50;2.63;;;17.20;99.90;;;;;;4933690;29;20466;-71
2023/05/10 09:36:15;;;;;;;2.17;1.93;;;17.30;99.90;;;;;;4934156;29;20477;-71
2023/05/10 09:38:49;;;;;;;2.07;1.97;;;17.30;99.90;;;;;;4933565;29;20474;-71
2023/05/10 09:41:20;;;;;;;2.27;2.17;;;17.20;99.90;;;;;;4943735;28;20825;-71
2023/05/10 09:43:47;;;;;;;1.83;1.73;;;17.20;99.90;;;;;;4952783;29;20472;-71
2023/05/10 09:46:15;;;;;;;2.13;2.03;;;17.10;99.90;;;;;;4953340;29;20475;-71
2023/05/10 09:48:44;;;;;;;2.40;2.03;;;17.00;99.90;;;;;;4953024;29;20469;-72
2023/05/10 09:51:11;;;;;;;3.40;2.20;;;17.10;99.90;;;;;;4952965;28;20943;-71
2023/05/10 09:53:38;;;;;;;2.07;1.97;;;17.00;99.90;;;;;;4950776;28;20469;-71
2023/05/10 09:56:04;;;;;;;1.90;1.80;;;16.90;99.90;;;;;;4952941;29;20507;-71
2023/05/10 09:58:31;;;;;;;3.13;2.83;;;16.90;99.90;;;;;;4952802;29;20484;-71
2023/05/10 10:00:58;;;;;;;2.77;2.57;;;16.90;99.90;;;;;;4952644;28;20849;-71
2023/05/10 10:03:26;;;;;;;2.60;2.50;;;16.90;99.90;;;;;;4952240;29;20496;-71
2023/05/10 10:05:55;;;;;;;3.30;3.00;;;16.90;99.90;;;;;;4952548;29;20472;-71
2023/05/10 10:08:23;;;;;;;2.97;2.80;;;17.00;99.90;;;;;;4952025;29;20829;-71
2023/05/10 10:10:50;;;;;;;2.27;2.20;;;17.00;99.90;;;;;;4952670;28;20563;-71
2023/05/10 10:13:18;;;;;;;2.60;2.50;;;17.00;99.90;;;;;;4951812;29;20449;-71
2023/05/10 10:15:45;;;;;;;2.00;1.63;;;16.90;99.90;;;;;;4953159;28;20544;-72
2023/05/10 10:18:15;;;;;;;3.50;3.20;;;16.80;99.90;;;;;;4952092;29;20469;-73
2023/05/10 10:20:43;;;;;;;2.73;2.40;;;16.70;99.90;;;;;;4952265;28;20906;-72
2023/05/10 10:23:10;;;;;;;2.93;2.60;;;16.60;99.90;;;;;;4951874;29;20477;-72
2023/05/10 10:25:38;;;;;;;2.60;2.50;;;16.50;99.90;;;;;;4951624;28;20500;-71
2023/05/10 10:28:17;;;;;;;2.23;2.10;;;16.40;99.90;;;;;;4952273;29;20808;-71
2023/05/10 10:30:46;;;;;;;3.47;3.27;;;16.10;99.90;;;;;;4952085;28;20579;-72
2023/05/10 10:33:37;;;;;;;2.63;2.43;;;15.90;99.90;;;;;;4951682;29;20531;-73
2023/05/10 10:36:06;;;;;;;3.13;2.90;;;15.70;99.90;;;;;;4952212;29;20469;-70
2023/05/10 10:39:00;;;;;;;5.67;5.10;;;15.60;99.90;;;;;;4951943;29;20531;-71
2023/05/10 10:41:32;;;;;;;2.73;2.53;;;15.60;99.90;;;;;;4938879;28;20589;-73
2023/05/10 10:44:27;;;;;;;4.83;4.07;;;15.50;99.90;;;;;;4932999;29;20465;-71
2023/05/10 10:47:01;;;;;;;3.13;2.90;;;15.30;99.90;;;;;;4933759;29;20473;-73
2023/05/10 10:49:27;;;;;;;3.40;3.07;;;15.30;99.90;;;;;;4933127;29;20469;-74
2023/05/10 10:52:21;;;;;;;5.10;3.13;;;15.20;99.90;;;;;;4933258;29;20489;-73
2023/05/10 10:54:52;;;;;;;4.10;3.73;;;15.00;99.90;;;;;;4932263;29;20499;-72
2023/05/10 10:57:21;;;;;;;5.40;4.90;;;14.90;99.90;;;;;;4933528;29;20469;-73
2023/05/10 10:59:48;;;;;;;8.60;5.07;;;14.90;99.90;;;;;;4933178;29;20654;-73
2023/05/10 11:02:44;;;;;;;5.93;3.70;;;14.80;99.90;;;;;;4932696;29;20612;-73
2023/05/10 11:05:40;;;;;;;5.53;4.97;;;14.80;99.90;;;;;;4934137;29;20520;-71
2023/05/10 11:08:29;;;;;;;6.07;5.47;;;14.60;99.90;;;;;;4936845;29;20495;-71
2023/05/10 11:11:09;;;;;;;7.50;5.10;;;14.60;99.90;;;;;;4932638;29;20494;-74
2023/05/10 11:13:40;;;;;;;4.10;3.90;;;14.60;99.90;;;;;;4936217;29;20492;-71
2023/05/10 11:16:15;;;;;;;5.17;4.87;;;14.60;99.90;;;;;;4936903;29;20894;-72
2023/05/10 11:18:53;;;;;;;5.90;4.27;;;14.60;99.90;;;;;;4936817;29;20499;-72
2023/05/10 11:21:20;;;;;;;6.70;5.77;;;14.70;99.90;;;;;;4937075;29;20571;-73
2023/05/10 11:23:51;;;;;;;7.00;5.57;;;14.60;99.90;;;;;;4935794;29;20470;-72
2023/05/10 11:26:19;;;;;;;4.00;3.80;;;14.60;99.90;;;;;;4937063;29;20473;-72
2023/05/10 11:28:47;;;;;;;4.97;4.37;;;14.70;99.90;;;;;;4936775;29;20481;-73
2023/05/10 11:31:15;;;;;;;4.10;3.80;;;14.80;99.90;;;;;;4936683;29;20548;-73
2023/05/10 11:33:44;;;;;;;5.13;4.73;;;14.70;99.90;;;;;;4935970;29;20565;-73
2023/05/10 11:36:12;;;;;;;2.80;2.63;;;14.80;99.90;;;;;;4936976;29;20473;-73
2023/05/10 11:38:39;;;;;;;4.97;4.47;;;15.00;99.90;;;;;;4936088;29;21103;-74
2023/05/10 11:41:09;;;;;;;5.70;5.20;;;15.10;99.90;;;;;;4950362;28;20852;-74
2023/05/10 11:43:38;;;;;;;5.70;3.97;;;15.10;99.90;;;;;;4935993;29;20553;-73
2023/05/10 11:46:05;;;;;;;4.37;4.17;;;15.00;99.90;;;;;;4936555;29;20524;-73
2023/05/10 11:48:32;;;;;;;3.53;3.20;;;15.00;99.90;;;;;;4937232;29;20500;-73
2023/05/10 11:50:59;;;;;;;4.50;4.10;;;15.00;99.90;;;;;;4936609;29;20496;-73
2023/05/10 11:53:27;;;;;;;5.37;4.37;;;15.00;99.90;;;;;;4935597;29;20962;-72
2023/05/10 11:55:54;;;;;;;5.03;4.60;;;15.20;99.90;;;;;;4936652;29;20556;-72
2023/05/10 11:58:23;;;;;;;4.40;4.10;;;15.40;99.90;;;;;;4936096;29;20537;-72
2023/05/10 12:00:50;;;;;;;9.50;5.10;;;15.40;99.90;;;;;;4935902;29;20558;-72
2023/05/10 12:03:18;;;;;;;5.57;3.40;;;15.50;99.90;;;;;;4935061;29;20809;-72
2023/05/10 12:05:44;;;;;;;3.00;2.80;;;15.50;99.90;;;;;;4935992;29;20477;-73
2023/05/10 12:08:15;;;;;;;5.27;4.77;;;15.60;99.90;;;;;;4935161;29;20537;-72
2023/05/10 12:10:42;;;;;;;6.57;4.27;;;15.50;99.90;;;;;;4935535;29;20555;-72
2023/05/10 12:13:13;;;;;;;4.33;3.93;;;15.60;99.90;;;;;;4935432;29;20568;-72
2023/05/10 12:15:42;;;;;;;6.53;5.67;;;15.40;99.90;;;;;;4935723;29;20498;-72
2023/05/10 12:18:10;;;;;;;4.60;4.23;;;15.40;99.90;;;;;;4935340;29;20501;-73
2023/05/10 12:20:37;;;;;;;4.77;4.37;;;15.40;99.90;;;;;;4935572;29;20493;-73
2023/05/10 12:23:05;;;;;;;5.83;4.27;;;15.40;99.90;;;;;;4934968;29;20497;-72
2023/05/10 12:25:33;;;;;;;4.93;4.53;;;15.40;99.90;;;;;;4935383;29;20505;-73
2023/05/10 12:28:04;;;;;;;5.37;4.60;;;15.50;99.90;;;;;;4935940;29;20472;-73
2023/05/10 12:30:32;;;;;;;5.97;5.10;;;15.50;99.90;;;;;;4935778;29;20794;-73
2023/05/10 12:33:03;;;;;;;4.93;4.53;;;15.60;99.90;;;;;;4935280;29;20473;-73
2023/05/10 12:35:31;;;;;;;4.90;4.47;;;15.60;99.90;;;;;;4935264;29;20469;-72
2023/05/10 12:37:58;;;;;;;4.93;4.53;;;15.60;99.90;;;;;;4934699;29;20487;-72
2023/05/10 12:40:25;;;;;;;9.20;5.20;;;15.60;99.90;;;;;;4943918;28;20523;-72
2023/05/10 12:42:52;;;;;;;5.70;4.90;;;15.60;99.90;;;;;;4954078;29;20846;-72
2023/05/10 12:45:19;;;;;;;3.87;3.50;;;15.60;99.90;;;;;;4953420;28;20484;-72
2023/05/10 12:47:45;;;;;;;5.07;4.50;;;15.80;99.90;;;;;;4953757;29;20461;-72
2023/05/10 12:50:13;;;;;;;5.60;4.63;;;15.80;99.90;;;;;;4953936;28;20464;-73
2023/05/10 12:52:40;;;;;;;4.53;4.23;;;15.90;99.90;;;;;;4953073;29;20461;-72
2023/05/10 12:55:07;;;;;;;3.90;3.60;;;15.90;99.90;;;;;;4953448;29;20845;-72
2023/05/10 12:57:34;;;;;;;3.70;3.40;;;15.90;99.90;;;;;;4953644;29;20464;-72
2023/05/10 13:00:01;;;;;;;4.27;3.97;;;15.90;99.90;;;;;;4953917;29;20468;-72
2023/05/10 13:02:27;;;;;;;8.83;7.10;;;15.90;99.90;;;;;;4953813;28;20989;-72
2023/05/10 13:04:54;;;;;;;4.97;4.30;;;15.90;99.90;;;;;;4953502;29;20472;-72
2023/05/10 13:07:22;;;;;;;3.73;3.40;;;15.90;99.90;;;;;;4953761;29;20657;-72
2023/05/10 13:09:49;;;;;;;2.67;2.50;;;15.90;99.90;;;;;;4953295;29;20842;-72
2023/05/10 13:12:15;;;;;;;2.83;2.63;;;16.00;99.90;;;;;;4954101;28;20481;-72
2023/05/10 13:14:42;;;;;;;4.03;3.57;;;16.10;99.90;;;;;;4953773;29;20476;-72
2023/05/10 13:17:09;;;;;;;4.60;4.20;;;16.20;99.90;;;;;;4954183;29;20469;-72
2023/05/10 13:19:36;;;;;;;5.00;4.50;;;16.30;99.90;;;;;;4953685;29;20568;-72
2023/05/10 13:22:03;;;;;;;3.93;3.53;;;16.40;99.90;;;;;;4953535;28;21012;-70
2023/05/10 13:24:31;;;;;;;4.33;3.97;;;16.50;99.90;;;;;;4952599;29;20484;-70
2023/05/10 13:26:58;;;;;;;5.40;5.10;;;16.40;99.90;;;;;;4953862;29;20479;-71
2023/05/10 13:29:25;;;;;;;3.50;3.40;;;16.50;99.90;;;;;;4952587;28;20464;-71
2023/05/10 13:31:51;;;;;;;3.70;3.50;;;16.60;99.90;;;;;;4953454;28;20558;-69
2023/05/10 13:34:20;;;;;;;10.43;4.17;;;16.60;99.90;;;;;;4952558;29;20475;-70
2023/05/10 13:36:47;;;;;;;4.00;3.70;;;16.70;99.90;;;;;;4953282;29;20568;-70
2023/05/10 13:39:13;;;;;;;3.73;3.53;;;16.70;99.90;;;;;;4952783;29;20488;-70
2023/05/10 13:41:42;;;;;;;4.63;4.23;;;16.80;99.90;;;;;;4947407;28;20508;-69
2023/05/10 13:44:08;;;;;;;4.10;3.80;;;16.90;99.90;;;;;;4952651;29;20464;-69
2023/05/10 13:46:35;;;;;;;4.23;3.93;;;16.90;99.90;;;;;;4953137;29;20962;-69
2023/05/10 13:49:01;;;;;;;3.80;3.50;;;16.80;99.90;;;;;;4953240;29;20624;-70
2023/05/10 13:51:28;;;;;;;4.57;4.27;;;16.90;99.90;;;;;;4953928;28;20515;-69
2023/05/10 13:53:55;;;;;;;2.80;2.60;;;16.90;99.90;;;;;;4952393;29;20461;-69
2023/05/10 13:56:21;;;;;;;2.20;2.10;;;17.00;99.90;;;;;;4953207;29;20980;-70
2023/05/10 13:58:49;;;;;;;2.50;2.50;;;17.10;99.90;;;;;;4953114;29;20476;-70
2023/05/10 14:01:16;;;;;;;3.53;3.33;;;17.20;99.90;;;;;;4953029;28;21021;-71
2023/05/10 14:03:43;;;;;;;2.70;2.60;;;17.30;99.90;;;;;;4952387;29;21020;-70
2023/05/10 14:06:09;;;;;;;1.77;1.77;;;17.30;99.90;;;;;;4952955;29;20954;-70
2023/05/10 14:08:36;;;;;;;2.20;2.10;;;17.30;99.90;;;;;;4952364;29;20468;-70
2023/05/10 14:11:03;;;;;;;3.70;3.30;;;17.40;99.90;;;;;;4952692;28;20496;-71
2023/05/10 14:13:30;;;;;;;2.63;2.17;;;17.50;99.90;;;;;;4952398;29;20464;-71
2023/05/10 14:16:00;;;;;;;2.77;2.63;;;17.60;99.90;;;;;;4952648;29;20958;-70
2023/05/10 14:18:27;;;;;;;2.27;2.17;;;17.70;99.90;;;;;;4952700;29;20476;-70
2023/05/10 14:20:53;;;;;;;4.50;2.63;;;17.80;99.90;;;;;;4952892;28;20489;-70
2023/05/10 14:23:23;;;;;;;1.70;1.70;;;17.90;99.90;;;;;;4951715;29;20488;-70
2023/05/10 14:25:50;;;;;;;3.17;2.97;;;17.90;99.90;;;;;;4953229;29;20464;-70
2023/05/10 14:28:18;;;;;;;3.30;3.17;;;17.80;99.90;;;;;;4952579;29;20563;-71
2023/05/10 14:30:44;;;;;;;1.97;1.97;;;17.70;99.90;;;;;;4952769;28;20600;-71
2023/05/10 14:33:13;;;;;;;1.93;1.83;;;17.60;99.90;;;;;;4952750;29;20519;-70
2023/05/10 14:35:39;;;;;;;2.03;1.97;;;17.70;99.90;;;;;;4952588;28;20485;-70
2023/05/10 14:38:06;;;;;;;1.23;1.23;;;17.80;99.90;;;;;;4951979;29;21047;-71
2023/05/10 14:40:33;;;;;;;1.77;1.67;;;17.90;99.90;;;;;;4954871;28;20558;-72
2023/05/10 14:42:59;;;;;;;2.20;2.10;;;18.00;99.90;;;;;;4948210;29;20485;-70
2023/05/10 14:45:27;;;;;;;2.40;2.23;;;18.10;99.90;;;;;;4956005;29;20468;-71
2023/05/10 14:47:53;;;;;;;2.23;2.13;;;18.10;99.90;;;;;;4956623;29;20460;-72
2023/05/10 14:50:21;;;;;;;1.40;1.40;;;18.10;99.90;;;;;;4956895;28;20499;-72
2023/05/10 14:52:48;;;;;;;1.67;1.67;;;18.10;99.90;;;;;;4956165;29;20767;-72
2023/05/10 14:55:15;;;;;;;1.33;1.33;;;18.20;99.90;;;;;;4956509;29;20775;-73
2023/05/10 14:57:43;;;;;;;1.90;1.50;;;18.10;99.90;;;;;;4956414;29;20892;-72
2023/05/10 15:00:11;;;;;;;1.80;1.70;;;18.10;99.90;;;;;;4956650;29;20464;-73
2023/05/10 15:02:38;;;;;;;1.53;1.43;;;18.20;99.90;;;;;;4956744;29;20492;-72
2023/05/10 15:05:05;;;;;;;1.73;1.70;;;18.40;99.90;;;;;;4956097;29;20468;-73
2023/05/10 15:07:33;;;;;;;2.07;1.97;;;18.40;99.90;;;;;;4955694;29;20464;-72
2023/05/10 15:10:00;;;;;;;1.57;1.47;;;18.30;99.90;;;;;;4956471;29;20477;-73
2023/05/10 15:12:27;;;;;;;1.70;1.70;;;18.40;99.90;;;;;;4956045;28;21092;-72
2023/05/10 15:14:53;;;;;;;1.30;1.30;;;18.40;99.90;;;;;;4956229;29;20941;-72
2023/05/10 15:17:20;;;;;;;1.60;1.53;;;18.30;99.90;;;;;;4956266;29;20961;-72
2023/05/10 15:19:48;;;;;;;15.93;10.40;;;18.20;99.90;;;;;;4956303;29;20476;-74
2023/05/10 15:22:15;;;;;;;12.70;8.70;;;18.20;99.90;;;;;;4955992;28;20507;-73
2023/05/10 15:24:43;;;;;;;4.90;3.77;;;18.20;99.90;;;;;;4954921;29;20535;-74
2023/05/10 15:27:10;;;;;;;7.37;6.03;;;18.10;99.90;;;;;;4956325;29;20469;-74
2023/05/10 15:29:36;;;;;;;2.10;1.97;;;18.20;99.90;;;;;;4956027;29;20464;-74
2023/05/10 15:32:03;;;;;;;2.40;2.30;;;18.20;99.90;;;;;;4956518;28;20627;-74
2023/05/10 15:34:30;;;;;;;1.90;1.80;;;18.10;99.90;;;;;;4955517;29;20483;-74
2023/05/10 15:36:57;;;;;;;1.47;1.47;;;18.10;99.90;;;;;;4956187;29;20468;-74
2023/05/10 15:39:23;;;;;;;2.33;2.33;;;18.10;99.90;;;;;;4954886;29;20511;-74
2023/05/10 15:41:51;;;;;;;1.97;1.87;;;18.00;99.90;;;;;;4949099;28;20492;-74
2023/05/10 15:44:18;;;;;;;2.37;2.23;;;17.90;99.90;;;;;;4935925;29;20707;-74
2023/05/10 15:46:45;;;;;;;1.57;1.50;;;18.00;99.90;;;;;;4936830;29;20539;-73
2023/05/10 15:49:12;;;;;;;1.43;1.43;;;18.00;99.90;;;;;;4936470;29;20469;-74
2023/05/10 15:51:38;;;;;;;2.27;2.03;;;18.00;99.90;;;;;;4935344;29;21010;-74
2023/05/10 15:54:06;;;;;;;1.93;1.93;;;18.10;99.90;;;;;;4935347;29;20477;-74
2023/05/10 15:56:33;;;;;;;1.50;1.50;;;17.90;99.90;;;;;;4936251;29;20556;-74
2023/05/10 15:59:02;;;;;;;1.53;1.53;;;17.90;99.90;;;;;;4936607;29;20501;-74
2023/05/10 16:01:29;;;;;;;1.70;1.60;;;17.80;99.90;;;;;;4936329;29;20504;-74
2023/05/10 16:03:56;;;;;;;1.47;1.47;;;17.80;99.90;;;;;;4935725;29;20580;-74
2023/05/10 16:06:22;;;;;;;1.20;1.20;;;17.80;99.90;;;;;;4936431;29;20503;-74
2023/05/10 16:08:49;;;;;;;0.90;0.90;;;17.80;99.90;;;;;;4935573;29;20606;-76
2023/05/10 16:11:16;;;;;;;1.37;1.37;;;17.80;99.90;;;;;;4936622;29;20511;-74
2023/05/10 16:13:43;;;;;;;1.10;1.10;;;17.70;99.90;;;;;;4935620;29;20473;-74
2023/05/10 16:16:11;;;;;;;1.27;1.27;;;17.60;99.90;;;;;;4936781;29;20839;-74
2023/05/10 16:18:38;;;;;;;1.60;1.40;;;17.50;99.90;;;;;;4936253;29;20978;-73
2023/05/10 16:21:04;;;;;;;1.43;1.43;;;17.40;99.90;;;;;;4935798;29;20556;-74
2023/05/10 16:23:31;;;;;;;1.30;1.20;;;17.40;99.90;;;;;;4934696;29;20516;-72
2023/05/10 16:25:58;;;;;;;1.63;1.63;;;17.50;99.90;;;;;;4935945;29;20838;-73
2023/05/10 16:28:24;;;;;;;1.43;1.43;;;17.50;99.90;;;;;;4935766;29;20521;-72
2023/05/10 16:30:51;;;;;;;1.23;1.23;;;17.50;99.90;;;;;;4935700;29;20524;-72
2023/05/10 16:33:19;;;;;;;1.80;1.80;;;17.40;99.90;;;;;;4934964;29;20468;-73
2023/05/10 16:35:46;;;;;;;1.90;1.90;;;17.40;99.90;;;;;;4935421;29;20473;-72
2023/05/10 16:38:13;;;;;;;1.77;1.70;;;17.50;99.90;;;;;;4935086;29;20536;-72
2023/05/10 16:40:40;;;;;;;2.10;2.10;;;17.40;99.90;;;;;;4941090;29;20532;-72
2023/05/10 16:43:07;;;;;;;1.70;1.60;;;17.50;99.90;;;;;;4934962;29;20489;-73
2023/05/10 16:45:34;;;;;;;2.40;2.40;;;17.50;99.90;;;;;;4934887;29;20474;-72
2023/05/10 16:48:00;;;;;;;3.20;3.00;;;17.60;99.90;;;;;;4934961;29;20469;-72
2023/05/10 16:50:28;;;;;;;2.43;2.33;;;17.50;99.90;;;;;;4935234;29;20828;-72